sensor_id;sensor_type;location;lat;lon;timestamp;pressure;altitude;pressure_sealevel;temperature;humidity
81913;BME280;71377;50.698;7.164;2023-08-07T00:01:51;100688.00;;;14.01;84.39
81913;BME280;71377;50.698;7.164;2023-08-07T00:04:19;100698.88;;;14.12;84.60
81913;BME280;71377;50.698;7.164;2023-08-07T00:06:45;100691.81;;;14.13;84.54
81913;BME280;71377;50.698;7.164;2023-08-07T00:09:12;100694.34;;;13.97;84.73
81913;BME280;71377;50.698;7.164;2023-08-07T00:11:38;100696.94;;;13.99;84.99
81913;BME280;71377;50.698;7.164;2023-08-07T00:14:05;100681.78;;;14.02;84.67
81913;BME280;71377;50.698;7.164;2023-08-07T00:16:31;100692.72;;;13.95;85.04
81913;BME280;71377;50.698;7.164;2023-08-07T00:18:57;100703.19;;;13.96;84.98
81913;BME280;71377;50.698;7.164;2023-08-07T00:21:24;100703.44;;;13.92;84.59
81913;BME280;71377;50.698;7.164;2023-08-07T00:23:51;100697.72;;;14.01;84.74
81913;BME280;71377;50.698;7.164;2023-08-07T00:26:17;100690.63;;;14.01;84.66
81913;BME280;71377;50.698;7.164;2023-08-07T00:28:44;100686.13;;;14.03;84.99
81913;BME280;71377;50.698;7.164;2023-08-07T00:31:11;100696.13;;;13.97;84.64
81913;BME280;71377;50.698;7.164;2023-08-07T00:33:38;100683.84;;;13.96;84.95
81913;BME280;71377;50.698;7.164;2023-08-07T00:36:05;100690.25;;;13.92;84.71
81913;BME280;71377;50.698;7.164;2023-08-07T00:38:31;100690.38;;;13.89;84.79
81913;BME280;71377;50.698;7.164;2023-08-07T00:40:58;100702.50;;;13.93;84.93
81913;BME280;71377;50.698;7.164;2023-08-07T00:43:26;100692.72;;;13.95;85.20
81913;BME280;71377;50.698;7.164;2023-08-07T00:45:52;100693.28;;;14.01;85.19
81913;BME280;71377;50.698;7.164;2023-08-07T00:48:19;100699.25;;;14.05;85.25
81913;BME280;71377;50.698;7.164;2023-08-07T00:50:47;100699.78;;;13.94;85.51
81913;BME280;71377;50.698;7.164;2023-08-07T00:53:14;100698.28;;;13.89;85.45
81913;BME280;71377;50.698;7.164;2023-08-07T00:55:42;100701.13;;;14.03;85.10
81913;BME280;71377;50.698;7.164;2023-08-07T00:58:08;100696.69;;;14.03;85.06
81913;BME280;71377;50.698;7.164;2023-08-07T01:00:35;100701.28;;;14.00;85.53
81913;BME280;71377;50.698;7.164;2023-08-07T01:03:05;100708.13;;;14.04;85.18
81913;BME280;71377;50.698;7.164;2023-08-07T01:05:32;100697.38;;;14.07;85.31
81913;BME280;71377;50.698;7.164;2023-08-07T01:07:58;100702.13;;;14.00;85.46
81913;BME280;71377;50.698;7.164;2023-08-07T01:13:23;100718.59;;;14.05;85.46
81913;BME280;71377;50.698;7.164;2023-08-07T01:15:55;100710.59;;;14.07;85.47
81913;BME280;71377;50.698;7.164;2023-08-07T01:18:22;100718.75;;;14.02;85.24
81913;BME280;71377;50.698;7.164;2023-08-07T01:20:48;100724.69;;;14.07;85.53
81913;BME280;71377;50.698;7.164;2023-08-07T01:23:15;100711.53;;;14.06;85.26
81913;BME280;71377;50.698;7.164;2023-08-07T01:29:31;100725.25;;;13.95;85.31
81913;BME280;71377;50.698;7.164;2023-08-07T01:32:01;100708.81;;;13.90;85.35
81913;BME280;71377;50.698;7.164;2023-08-07T01:34:30;100714.50;;;14.00;85.49
81913;BME280;71377;50.698;7.164;2023-08-07T01:36:58;100723.41;;;13.97;85.31
81913;BME280;71377;50.698;7.164;2023-08-07T01:39:25;100716.16;;;13.83;85.58
81913;BME280;71377;50.698;7.164;2023-08-07T01:41:52;100725.75;;;14.03;85.20
81913;BME280;71377;50.698;7.164;2023-08-07T01:44:18;100720.72;;;13.99;85.63
81913;BME280;71377;50.698;7.164;2023-08-07T01:46:45;100730.13;;;13.85;85.60
81913;BME280;71377;50.698;7.164;2023-08-07T01:49:11;100731.56;;;13.93;85.36
81913;BME280;71377;50.698;7.164;2023-08-07T01:51:38;100736.56;;;13.99;85.56
81913;BME280;71377;50.698;7.164;2023-08-07T01:54:04;100727.81;;;13.97;85.57
81913;BME280;71377;50.698;7.164;2023-08-07T01:56:30;100721.72;;;14.13;85.28
81913;BME280;71377;50.698;7.164;2023-08-07T01:58:57;100722.53;;;13.97;85.86
81913;BME280;71377;50.698;7.164;2023-08-07T02:01:23;100729.25;;;14.04;85.73
81913;BME280;71377;50.698;7.164;2023-08-07T02:03:50;100727.66;;;14.19;85.47
81913;BME280;71377;50.698;7.164;2023-08-07T02:06:16;100735.31;;;14.06;85.67
81913;BME280;71377;50.698;7.164;2023-08-07T02:08:43;100734.59;;;14.02;85.29
81913;BME280;71377;50.698;7.164;2023-08-07T02:11:09;100734.94;;;14.13;85.45
81913;BME280;71377;50.698;7.164;2023-08-07T02:13:36;100741.22;;;14.11;85.61
81913;BME280;71377;50.698;7.164;2023-08-07T02:16:02;100740.94;;;14.17;85.50
81913;BME280;71377;50.698;7.164;2023-08-07T02:18:29;100745.00;;;14.05;85.50
81913;BME280;71377;50.698;7.164;2023-08-07T02:20:55;100743.22;;;14.06;85.74
81913;BME280;71377;50.698;7.164;2023-08-07T02:23:22;100746.03;;;14.03;85.55
81913;BME280;71377;50.698;7.164;2023-08-07T02:25:48;100747.75;;;14.04;85.90
81913;BME280;71377;50.698;7.164;2023-08-07T02:28:15;100740.94;;;14.17;85.14
81913;BME280;71377;50.698;7.164;2023-08-07T02:30:41;100743.78;;;14.12;85.96
81913;BME280;71377;50.698;7.164;2023-08-07T02:33:07;100740.59;;;14.06;85.48
81913;BME280;71377;50.698;7.164;2023-08-07T02:35:34;100740.66;;;14.04;85.76
81913;BME280;71377;50.698;7.164;2023-08-07T02:38:00;100746.72;;;14.06;85.91
81913;BME280;71377;50.698;7.164;2023-08-07T02:40:27;100732.16;;;13.98;85.60
81913;BME280;71377;50.698;7.164;2023-08-07T02:42:53;100743.97;;;13.91;85.75
81913;BME280;71377;50.698;7.164;2023-08-07T02:45:20;100735.97;;;13.92;85.89
81913;BME280;71377;50.698;7.164;2023-08-07T02:47:46;100739.41;;;13.94;85.78
81913;BME280;71377;50.698;7.164;2023-08-07T02:50:13;100748.47;;;13.89;86.02
81913;BME280;71377;50.698;7.164;2023-08-07T02:52:39;100742.69;;;13.99;85.87
81913;BME280;71377;50.698;7.164;2023-08-07T02:55:06;100752.09;;;14.05;85.83
81913;BME280;71377;50.698;7.164;2023-08-07T02:57:32;100745.53;;;13.95;85.62
81913;BME280;71377;50.698;7.164;2023-08-07T02:59:59;100750.97;;;13.92;85.48
81913;BME280;71377;50.698;7.164;2023-08-07T03:02:25;100746.97;;;14.02;85.70
81913;BME280;71377;50.698;7.164;2023-08-07T03:04:52;100746.03;;;14.03;85.69
81913;BME280;71377;50.698;7.164;2023-08-07T03:07:18;100746.09;;;14.01;85.34
81913;BME280;71377;50.698;7.164;2023-08-07T03:09:45;100757.53;;;14.02;85.50
81913;BME280;71377;50.698;7.164;2023-08-07T03:12:13;100758.75;;;13.95;85.75
81913;BME280;71377;50.698;7.164;2023-08-07T03:14:40;100758.47;;;14.01;86.16
81913;BME280;71377;50.698;7.164;2023-08-07T03:17:06;100757.97;;;13.93;86.20
81913;BME280;71377;50.698;7.164;2023-08-07T03:19:33;100759.94;;;13.88;86.03
81913;BME280;71377;50.698;7.164;2023-08-07T03:21:59;100761.13;;;13.82;86.25
81913;BME280;71377;50.698;7.164;2023-08-07T03:24:26;100757.91;;;13.75;86.02
81913;BME280;71377;50.698;7.164;2023-08-07T03:26:52;100755.88;;;13.80;85.76
81913;BME280;71377;50.698;7.164;2023-08-07T03:29:19;100755.09;;;13.78;85.75
81913;BME280;71377;50.698;7.164;2023-08-07T03:31:45;100761.66;;;13.70;85.82
81913;BME280;71377;50.698;7.164;2023-08-07T03:34:12;100765.81;;;13.75;85.68
81913;BME280;71377;50.698;7.164;2023-08-07T03:36:38;100755.75;;;13.65;85.98
81913;BME280;71377;50.698;7.164;2023-08-07T03:39:04;100753.81;;;13.68;85.61
81913;BME280;71377;50.698;7.164;2023-08-07T03:41:31;100765.66;;;13.78;86.01
81913;BME280;71377;50.698;7.164;2023-08-07T03:43:57;100766.09;;;13.69;85.96
81913;BME280;71377;50.698;7.164;2023-08-07T03:46:24;100766.94;;;13.89;85.72
81913;BME280;71377;50.698;7.164;2023-08-07T03:48:50;100765.25;;;13.69;85.81
81913;BME280;71377;50.698;7.164;2023-08-07T03:51:17;100770.53;;;13.69;85.63
81913;BME280;71377;50.698;7.164;2023-08-07T03:53:44;100773.38;;;13.64;85.64
81913;BME280;71377;50.698;7.164;2023-08-07T03:56:10;100770.53;;;13.69;85.20
81913;BME280;71377;50.698;7.164;2023-08-07T03:58:37;100774.06;;;13.49;84.41
81913;BME280;71377;50.698;7.164;2023-08-07T04:01:03;100780.72;;;13.57;84.13
81913;BME280;71377;50.698;7.164;2023-08-07T04:03:30;100775.72;;;13.51;84.10
81913;BME280;71377;50.698;7.164;2023-08-07T04:05:56;100778.97;;;13.38;83.29
81913;BME280;71377;50.698;7.164;2023-08-07T04:08:23;100771.19;;;13.35;83.22
81913;BME280;71377;50.698;7.164;2023-08-07T04:11:03;100784.25;;;13.38;83.56
81913;BME280;71377;50.698;7.164;2023-08-07T04:13:30;100778.19;;;13.36;83.83
81913;BME280;71377;50.698;7.164;2023-08-07T04:15:57;100771.41;;;13.30;83.18
81913;BME280;71377;50.698;7.164;2023-08-07T04:18:24;100778.19;;;13.36;83.81
81913;BME280;71377;50.698;7.164;2023-08-07T04:20:54;100785.31;;;13.34;83.67
81913;BME280;71377;50.698;7.164;2023-08-07T04:23:21;100788.66;;;13.37;83.35
81913;BME280;71377;50.698;7.164;2023-08-07T04:25:48;100791.19;;;13.40;83.66
81913;BME280;71377;50.698;7.164;2023-08-07T04:28:15;100784.66;;;13.28;82.78
81913;BME280;71377;50.698;7.164;2023-08-07T04:30:42;100793.34;;;13.10;82.24
81913;BME280;71377;50.698;7.164;2023-08-07T04:33:09;100780.81;;;13.15;81.84
81913;BME280;71377;50.698;7.164;2023-08-07T04:35:35;100790.78;;;13.09;81.56
81913;BME280;71377;50.698;7.164;2023-08-07T04:38:02;100797.81;;;13.08;81.61
81913;BME280;71377;50.698;7.164;2023-08-07T04:40:29;100792.47;;;13.10;82.02
81913;BME280;71377;50.698;7.164;2023-08-07T04:42:56;100791.78;;;13.06;82.41
81913;BME280;71377;50.698;7.164;2023-08-07T04:45:22;100800.78;;;13.22;82.11
81913;BME280;71377;50.698;7.164;2023-08-07T04:47:49;100793.72;;;13.23;82.54
81913;BME280;71377;50.698;7.164;2023-08-07T04:50:15;100798.91;;;13.24;82.35
81913;BME280;71377;50.698;7.164;2023-08-07T04:52:42;100790.72;;;13.31;82.91
81913;BME280;71377;50.698;7.164;2023-08-07T04:55:08;100799.63;;;13.28;82.73
81913;BME280;71377;50.698;7.164;2023-08-07T04:57:35;100792.56;;;13.28;82.86
81913;BME280;71377;50.698;7.164;2023-08-07T05:00:01;100800.78;;;13.22;83.07
81913;BME280;71377;50.698;7.164;2023-08-07T05:02:29;100797.94;;;13.46;83.48
81913;BME280;71377;50.698;7.164;2023-08-07T05:04:55;100801.84;;;13.37;83.39
81913;BME280;71377;50.698;7.164;2023-08-07T05:07:22;100804.91;;;13.48;83.41
81913;BME280;71377;50.698;7.164;2023-08-07T05:09:48;100802.84;;;13.35;83.30
81913;BME280;71377;50.698;7.164;2023-08-07T05:12:17;100806.16;;;13.40;83.35
81913;BME280;71377;50.698;7.164;2023-08-07T05:14:43;100803.28;;;13.44;83.73
81913;BME280;71377;50.698;7.164;2023-08-07T05:17:10;100801.09;;;13.54;83.85
81913;BME280;71377;50.698;7.164;2023-08-07T05:19:36;100806.78;;;13.65;83.66
81913;BME280;71377;50.698;7.164;2023-08-07T05:22:03;100813.47;;;13.72;84.13
81913;BME280;71377;50.698;7.164;2023-08-07T05:24:30;100802.78;;;13.56;84.12
81913;BME280;71377;50.698;7.164;2023-08-07T05:27:05;100803.22;;;13.66;84.24
81913;BME280;71377;50.698;7.164;2023-08-07T05:29:35;100808.75;;;13.60;84.48
81913;BME280;71377;50.698;7.164;2023-08-07T05:32:13;100802.69;;;13.58;84.62
81913;BME280;71377;50.698;7.164;2023-08-07T05:34:40;100806.63;;;13.68;84.61
81913;BME280;71377;50.698;7.164;2023-08-07T05:37:07;100806.81;;;13.64;84.65
81913;BME280;71377;50.698;7.164;2023-08-07T05:39:35;100804.41;;;13.78;84.79
81913;BME280;71377;50.698;7.164;2023-08-07T05:42:01;100818.03;;;13.88;84.68
81913;BME280;71377;50.698;7.164;2023-08-07T05:44:29;100812.34;;;13.78;85.25
81913;BME280;71377;50.698;7.164;2023-08-07T05:46:56;100817.34;;;13.84;85.22
81913;BME280;71377;50.698;7.164;2023-08-07T05:49:22;100827.47;;;13.93;84.88
81913;BME280;71377;50.698;7.164;2023-08-07T05:51:51;100825.84;;;13.91;85.07
81913;BME280;71377;50.698;7.164;2023-08-07T05:54:18;100826.75;;;13.90;85.22
81913;BME280;71377;50.698;7.164;2023-08-07T05:56:44;100828.50;;;13.91;85.52
81913;BME280;71377;50.698;7.164;2023-08-07T05:59:11;100826.63;;;14.11;85.19
81913;BME280;71377;50.698;7.164;2023-08-07T06:01:39;100829.06;;;14.16;85.07
81913;BME280;71377;50.698;7.164;2023-08-07T06:04:08;100818.03;;;14.06;84.99
81913;BME280;71377;50.698;7.164;2023-08-07T06:06:35;100833.63;;;14.12;84.95
81913;BME280;71377;50.698;7.164;2023-08-07T06:09:02;100826.47;;;14.14;85.26
81913;BME280;71377;50.698;7.164;2023-08-07T06:11:30;100822.47;;;14.06;85.26
81913;BME280;71377;50.698;7.164;2023-08-07T06:13:56;100832.91;;;14.09;85.59
81913;BME280;71377;50.698;7.164;2023-08-07T06:16:23;100831.88;;;14.30;84.85
81913;BME280;71377;50.698;7.164;2023-08-07T06:18:49;100830.19;;;14.29;84.14
81913;BME280;71377;50.698;7.164;2023-08-07T06:21:16;100830.41;;;14.25;84.63
81913;BME280;71377;50.698;7.164;2023-08-07T06:23:42;100830.94;;;14.31;84.92
81913;BME280;71377;50.698;7.164;2023-08-07T06:26:09;100843.03;;;14.18;84.99
81913;BME280;71377;50.698;7.164;2023-08-07T06:28:36;100843.81;;;14.20;85.12
81913;BME280;71377;50.698;7.164;2023-08-07T06:31:07;100848.34;;;14.18;85.24
81913;BME280;71377;50.698;7.164;2023-08-07T06:33:34;100856.19;;;14.20;85.27
81913;BME280;71377;50.698;7.164;2023-08-07T06:36:02;100848.59;;;14.12;85.18
81913;BME280;71377;50.698;7.164;2023-08-07T06:38:30;100851.19;;;13.95;85.50
81913;BME280;71377;50.698;7.164;2023-08-07T06:40:57;100854.50;;;13.98;85.57
81913;BME280;71377;50.698;7.164;2023-08-07T06:43:25;100854.16;;;14.06;85.81
81913;BME280;71377;50.698;7.164;2023-08-07T06:45:53;100860.81;;;13.96;85.85
81913;BME280;71377;50.698;7.164;2023-08-07T06:48:19;100866.44;;;14.07;85.96
81913;BME280;71377;50.698;7.164;2023-08-07T06:50:47;100877.59;;;13.95;86.10
81913;BME280;71377;50.698;7.164;2023-08-07T06:53:14;100872.97;;;14.00;85.92
81913;BME280;71377;50.698;7.164;2023-08-07T06:55:41;100875.56;;;13.81;86.39
81913;BME280;71377;50.698;7.164;2023-08-07T06:58:08;100880.97;;;13.78;86.19
81913;BME280;71377;50.698;7.164;2023-08-07T07:00:37;100875.41;;;13.65;85.44
81913;BME280;71377;50.698;7.164;2023-08-07T07:03:04;100884.13;;;13.26;84.60
81913;BME280;71377;50.698;7.164;2023-08-07T07:05:32;100883.72;;;13.36;83.48
81913;BME280;71377;50.698;7.164;2023-08-07T07:07:58;100888.22;;;13.34;83.54
81913;BME280;71377;50.698;7.164;2023-08-07T07:10:25;100896.53;;;13.24;82.30
81913;BME280;71377;50.698;7.164;2023-08-07T07:12:52;100887.81;;;13.22;82.34
81913;BME280;71377;50.698;7.164;2023-08-07T07:15:18;100898.09;;;13.28;81.95
81913;BME280;71377;50.698;7.164;2023-08-07T07:17:45;100891.25;;;13.24;81.81
81913;BME280;71377;50.698;7.164;2023-08-07T07:20:11;100894.47;;;13.09;81.74
81913;BME280;71377;50.698;7.164;2023-08-07T07:22:38;100898.28;;;13.02;81.84
81913;BME280;71377;50.698;7.164;2023-08-07T07:25:05;100904.31;;;13.06;81.46
81913;BME280;71377;50.698;7.164;2023-08-07T07:27:33;100899.13;;;13.04;82.10
81913;BME280;71377;50.698;7.164;2023-08-07T07:30:00;100909.91;;;12.98;82.26
81913;BME280;71377;50.698;7.164;2023-08-07T07:32:26;100909.13;;;12.96;81.82
81913;BME280;71377;50.698;7.164;2023-08-07T07:34:53;100921.13;;;13.03;81.88
81913;BME280;71377;50.698;7.164;2023-08-07T07:37:19;100919.09;;;13.10;82.05
81913;BME280;71377;50.698;7.164;2023-08-07T07:39:46;100922.56;;;13.10;82.18
81913;BME280;71377;50.698;7.164;2023-08-07T07:42:12;100922.97;;;13.23;82.02
81913;BME280;71377;50.698;7.164;2023-08-07T07:44:39;100923.78;;;13.03;81.58
81913;BME280;71377;50.698;7.164;2023-08-07T07:47:06;100924.25;;;13.13;81.16
81913;BME280;71377;50.698;7.164;2023-08-07T07:49:32;100919.00;;;13.11;81.53
81913;BME280;71377;50.698;7.164;2023-08-07T07:51:59;100927.41;;;13.22;81.47
81913;BME280;71377;50.698;7.164;2023-08-07T07:54:28;100929.72;;;13.30;81.35
81913;BME280;71377;50.698;7.164;2023-08-07T07:56:54;100937.56;;;13.32;80.64
81913;BME280;71377;50.698;7.164;2023-08-07T07:59:21;100924.38;;;13.32;81.76
81913;BME280;71377;50.698;7.164;2023-08-07T08:01:47;100934.91;;;13.32;81.92
81913;BME280;71377;50.698;7.164;2023-08-07T08:04:14;100933.88;;;13.56;81.88
81913;BME280;71377;50.698;7.164;2023-08-07T08:06:41;100927.75;;;13.55;82.12
81913;BME280;71377;50.698;7.164;2023-08-07T08:09:08;100939.47;;;13.69;82.20
81913;BME280;71377;50.698;7.164;2023-08-07T08:11:36;100930.84;;;13.65;81.86
81913;BME280;71377;50.698;7.164;2023-08-07T08:14:02;100941.84;;;13.75;82.45
81913;BME280;71377;50.698;7.164;2023-08-07T08:16:29;100944.16;;;13.82;82.15
81913;BME280;71377;50.698;7.164;2023-08-07T08:18:55;100954.00;;;13.79;81.90
81913;BME280;71377;50.698;7.164;2023-08-07T08:21:22;100959.09;;;13.83;82.41
81913;BME280;71377;50.698;7.164;2023-08-07T08:23:48;100960.66;;;13.88;82.01
81913;BME280;71377;50.698;7.164;2023-08-07T08:26:15;100968.97;;;13.99;82.35
81913;BME280;71377;50.698;7.164;2023-08-07T08:28:41;100972.47;;;13.99;82.42
81913;BME280;71377;50.698;7.164;2023-08-07T08:31:07;100965.66;;;13.94;82.49
81913;BME280;71377;50.698;7.164;2023-08-07T08:33:35;100980.19;;;14.04;82.91
81913;BME280;71377;50.698;7.164;2023-08-07T08:36:01;100975.03;;;14.01;82.85
81913;BME280;71377;50.698;7.164;2023-08-07T08:38:27;100982.41;;;14.13;82.74
81913;BME280;71377;50.698;7.164;2023-08-07T08:41:02;100984.38;;;14.28;82.71
81913;BME280;71377;50.698;7.164;2023-08-07T08:43:30;100980.66;;;14.32;83.06
81913;BME280;71377;50.698;7.164;2023-08-07T08:46:00;100992.75;;;14.38;83.15
81913;BME280;71377;50.698;7.164;2023-08-07T08:48:27;100989.91;;;14.42;83.35
81913;BME280;71377;50.698;7.164;2023-08-07T08:50:58;100990.03;;;14.39;83.43
81913;BME280;71377;50.698;7.164;2023-08-07T08:53:25;100992.44;;;14.46;83.82
81913;BME280;71377;50.698;7.164;2023-08-07T08:55:52;100986.78;;;14.53;83.83
81913;BME280;71377;50.698;7.164;2023-08-07T08:58:19;100992.50;;;14.63;84.10
81913;BME280;71377;50.698;7.164;2023-08-07T09:00:47;100989.81;;;14.44;84.28
81913;BME280;71377;50.698;7.164;2023-08-07T09:03:14;100999.78;;;14.58;84.14
81913;BME280;71377;50.698;7.164;2023-08-07T09:05:41;100999.31;;;14.68;84.43
81913;BME280;71377;50.698;7.164;2023-08-07T09:08:09;101002.22;;;14.81;84.40
81913;BME280;71377;50.698;7.164;2023-08-07T09:10:35;101006.78;;;14.96;84.45
81913;BME280;71377;50.698;7.164;2023-08-07T09:13:04;101005.06;;;14.95;84.51
81913;BME280;71377;50.698;7.164;2023-08-07T09:15:32;101000.34;;;14.83;84.93
81913;BME280;71377;50.698;7.164;2023-08-07T09:18:00;101006.06;;;14.93;84.74
81913;BME280;71377;50.698;7.164;2023-08-07T09:20:28;101003.97;;;14.99;85.01
81913;BME280;71377;50.698;7.164;2023-08-07T09:22:55;101003.91;;;15.01;84.83
81913;BME280;71377;50.698;7.164;2023-08-07T09:25:30;101008.19;;;15.22;84.64
81913;BME280;71377;50.698;7.164;2023-08-07T09:27:57;101016.97;;;15.23;85.16
81913;BME280;71377;50.698;7.164;2023-08-07T09:30:28;101021.44;;;15.40;84.94
81913;BME280;71377;50.698;7.164;2023-08-07T09:32:59;101021.16;;;15.63;84.41
81913;BME280;71377;50.698;7.164;2023-08-07T09:35:29;101022.50;;;15.72;83.55
81913;BME280;71377;50.698;7.164;2023-08-07T09:37:59;101028.91;;;15.85;83.23
81913;BME280;71377;50.698;7.164;2023-08-07T09:40:25;101019.84;;;15.89;80.67
81913;BME280;71377;50.698;7.164;2023-08-07T09:42:53;101013.84;;;15.86;81.40
81913;BME280;71377;50.698;7.164;2023-08-07T09:45:22;101020.41;;;15.96;82.49
81913;BME280;71377;50.698;7.164;2023-08-07T09:47:59;101018.03;;;16.07;80.35
81913;BME280;71377;50.698;7.164;2023-08-07T09:50:26;101015.94;;;15.96;80.26
81913;BME280;71377;50.698;7.164;2023-08-07T09:52:55;101031.09;;;15.77;81.69
81913;BME280;71377;50.698;7.164;2023-08-07T09:55:22;101036.84;;;15.68;82.73
81913;BME280;71377;50.698;7.164;2023-08-07T09:57:50;101049.56;;;15.60;82.82
81913;BME280;71377;50.698;7.164;2023-08-07T10:00:17;101055.38;;;15.68;83.22
81913;BME280;71377;50.698;7.164;2023-08-07T10:02:49;101061.78;;;15.64;82.81
81913;BME280;71377;50.698;7.164;2023-08-07T10:05:17;101058.31;;;15.62;82.51
81913;BME280;71377;50.698;7.164;2023-08-07T10:07:44;101063.50;;;15.65;82.64
81913;BME280;71377;50.698;7.164;2023-08-07T10:10:11;101069.56;;;15.67;82.44
81913;BME280;71377;50.698;7.164;2023-08-07T10:12:38;101072.03;;;15.70;82.94
81913;BME280;71377;50.698;7.164;2023-08-07T10:15:06;101076.91;;;15.60;83.00
81913;BME280;71377;50.698;7.164;2023-08-07T10:17:33;101080.44;;;15.61;82.56
81913;BME280;71377;50.698;7.164;2023-08-07T10:20:00;101079.06;;;15.71;83.54
81913;BME280;71377;50.698;7.164;2023-08-07T10:22:29;101075.94;;;15.63;83.01
81913;BME280;71377;50.698;7.164;2023-08-07T10:24:59;101067.00;;;15.82;83.34
81913;BME280;71377;50.698;7.164;2023-08-07T10:27:29;101067.06;;;15.98;83.29
81913;BME280;71377;50.698;7.164;2023-08-07T10:30:01;101080.66;;;16.09;82.04
81913;BME280;71377;50.698;7.164;2023-08-07T10:32:30;101079.41;;;15.99;80.86
81913;BME280;71377;50.698;7.164;2023-08-07T10:34:58;101082.44;;;15.92;82.55
81913;BME280;71377;50.698;7.164;2023-08-07T10:40:09;101076.97;;;16.29;80.80
81913;BME280;71377;50.698;7.164;2023-08-07T10:45:22;101073.63;;;16.92;79.45
81913;BME280;71377;50.698;7.164;2023-08-07T10:50:31;101069.38;;;17.21;75.55
81913;BME280;71377;50.698;7.164;2023-08-07T10:53:02;101066.34;;;17.43;75.28
81913;BME280;71377;50.698;7.164;2023-08-07T10:55:45;101068.75;;;17.32;75.47
81913;BME280;71377;50.698;7.164;2023-08-07T10:58:32;101064.63;;;17.42;74.92
81913;BME280;71377;50.698;7.164;2023-08-07T11:01:39;101063.78;;;17.26;75.62
81913;BME280;71377;50.698;7.164;2023-08-07T11:06:35;101074.75;;;17.04;74.81
81913;BME280;71377;50.698;7.164;2023-08-07T11:09:04;101078.84;;;17.41;73.25
81913;BME280;71377;50.698;7.164;2023-08-07T11:11:37;101085.63;;;17.46;73.55
81913;BME280;71377;50.698;7.164;2023-08-07T11:14:11;101086.59;;;17.91;72.91
81913;BME280;71377;50.698;7.164;2023-08-07T11:16:40;101073.63;;;18.01;70.48
81913;BME280;71377;50.698;7.164;2023-08-07T11:19:07;101073.81;;;18.12;71.08
81913;BME280;71377;50.698;7.164;2023-08-07T11:21:35;101072.31;;;18.22;68.96
81913;BME280;71377;50.698;7.164;2023-08-07T11:24:02;101073.63;;;18.15;69.92
81913;BME280;71377;50.698;7.164;2023-08-07T11:26:29;101077.53;;;18.10;69.88
81913;BME280;71377;50.698;7.164;2023-08-07T11:28:56;101063.47;;;18.07;66.53
81913;BME280;71377;50.698;7.164;2023-08-07T11:31:23;101076.19;;;18.02;65.16
81913;BME280;71377;50.698;7.164;2023-08-07T11:33:52;101073.97;;;17.95;66.49
81913;BME280;71377;50.698;7.164;2023-08-07T11:36:19;101074.16;;;18.50;65.16
81913;BME280;71377;50.698;7.164;2023-08-07T11:38:45;101060.19;;;18.61;64.15
81913;BME280;71377;50.698;7.164;2023-08-07T11:41:14;101062.94;;;18.45;64.35
81913;BME280;71377;50.698;7.164;2023-08-07T11:43:41;101055.81;;;18.31;65.91
81913;BME280;71377;50.698;7.164;2023-08-07T11:46:10;101062.00;;;18.89;64.75
81913;BME280;71377;50.698;7.164;2023-08-07T11:48:38;101059.59;;;19.13;60.09
81913;BME280;71377;50.698;7.164;2023-08-07T11:51:05;101060.19;;;19.04;60.56
81913;BME280;71377;50.698;7.164;2023-08-07T11:53:35;101063.63;;;19.33;58.06
81913;BME280;71377;50.698;7.164;2023-08-07T11:58:38;101055.34;;;20.17;60.84
81913;BME280;71377;50.698;7.164;2023-08-07T12:01:09;101055.72;;;20.50;55.53
81913;BME280;71377;50.698;7.164;2023-08-07T12:03:37;101044.25;;;20.36;54.28
81913;BME280;71377;50.698;7.164;2023-08-07T12:06:08;101049.75;;;19.82;53.39
81913;BME280;71377;50.698;7.164;2023-08-07T12:11:05;101057.66;;;19.96;50.95
81913;BME280;71377;50.698;7.164;2023-08-07T12:13:32;101048.09;;;20.19;51.70
81913;BME280;71377;50.698;7.164;2023-08-07T12:16:01;101054.53;;;20.54;51.18
81913;BME280;71377;50.698;7.164;2023-08-07T12:18:30;101051.22;;;20.51;51.44
81913;BME280;71377;50.698;7.164;2023-08-07T12:21:02;101059.63;;;20.57;52.79
81913;BME280;71377;50.698;7.164;2023-08-07T12:23:33;101061.06;;;20.50;50.51
81913;BME280;71377;50.698;7.164;2023-08-07T12:25:59;101046.16;;;20.08;53.30
81913;BME280;71377;50.698;7.164;2023-08-07T12:28:26;101056.28;;;20.03;51.69
81913;BME280;71377;50.698;7.164;2023-08-07T12:30:53;101044.22;;;20.74;49.96
81913;BME280;71377;50.698;7.164;2023-08-07T12:33:20;101043.81;;;21.16;50.41
81913;BME280;71377;50.698;7.164;2023-08-07T12:35:46;101039.28;;;21.54;48.82
81913;BME280;71377;50.698;7.164;2023-08-07T12:38:12;101031.78;;;21.94;47.07
81913;BME280;71377;50.698;7.164;2023-08-07T12:40:41;101043.16;;;20.89;48.50
81913;BME280;71377;50.698;7.164;2023-08-07T12:43:10;101042.72;;;20.95;46.54
81913;BME280;71377;50.698;7.164;2023-08-07T12:45:36;101040.69;;;21.70;44.95
81913;BME280;71377;50.698;7.164;2023-08-07T12:48:06;101040.78;;;21.93;46.78
81913;BME280;71377;50.698;7.164;2023-08-07T12:50:33;101039.41;;;21.52;44.62
81913;BME280;71377;50.698;7.164;2023-08-07T12:53:00;101035.06;;;20.78;48.45
81913;BME280;71377;50.698;7.164;2023-08-07T12:55:30;101045.44;;;20.19;49.83
81913;BME280;71377;50.698;7.164;2023-08-07T12:57:57;101044.25;;;21.10;47.97
81913;BME280;71377;50.698;7.164;2023-08-07T13:00:24;101038.69;;;21.13;48.69
81913;BME280;71377;50.698;7.164;2023-08-07T13:02:52;101039.78;;;21.94;48.32
81913;BME280;71377;50.698;7.164;2023-08-07T13:05:20;101031.63;;;22.31;44.92
81913;BME280;71377;50.698;7.164;2023-08-07T13:07:48;101029.69;;;21.86;47.00
81913;BME280;71377;50.698;7.164;2023-08-07T13:10:16;101039.66;;;21.12;48.77
81913;BME280;71377;50.698;7.164;2023-08-07T13:12:44;101047.38;;;20.68;49.84
81913;BME280;71377;50.698;7.164;2023-08-07T13:15:15;101046.47;;;20.03;51.76